Accueil
METAR-TAF:

METAR-TAF

Aéroports :

Pékin, Chine

Aéroport international de Pékin-Capitale

latitude: 39-56N, longitude: 116-17E, altitude: 55 m

Observation

Le bulletin a été fait il y a 20 minutes, à 16:00 UTC
Vent 2 kt de nord-est
Température 12°C
Humidité 94%
Pression 1017 hPa
Visibilité 10 km ou plus
pas de nuages en-dessous de 1500 mètres et pas de cumulonimbus.

METAR: ZBAA 261600Z 04001MPS CAVOK 12/11 Q1017 NOSIG

Heure: 00:20 (16:20 UTC)

Prévision

Le bulletin a été fait il y a 7 heures et 0 minutes, à 09:20 UTC
Prévision valable du 26 à 12 UTC au 27 à 12 UTC
Vent 8 kt de nord
Visibilité 10 km ou plus
pas de nuages en-dessous de 1500 mètres et pas de cumulonimbus.

TAF: ZBAA 260920Z 2612/2712 36004MPS CAVOK TX24/2707Z TN14/2621Z

Observations et prévisions météorologiques de plus de 4000 aéroports (messages METAR et TAF).

Les stations disponibles sont représentées par des disques jaunes et rouges sur la carte.

Passer la souris dessus pour voir le nom de la station.

Cliquer dessus pour voir les observations et prévisions météorologiques.

Pour changer de carte: cliquez sur les boutons verts avec une croix noire pour zoomer, sur le bouton vert avec un tiret pour effectuer un zoom arrière, ou sur les flèches vertes pour les cartes adjacentes.


METAR-TAF: